KVJI/VJI METAR and TAF weather

Enter ICAO airport designator
Station Type Date Time Source
KVJI METAR 2021/05/12 04:55 UTC NOAA

KVJI 120455Z AUTO 05005KT 10SM OVC075 12/03 A3021 RMK AO2 T01160028


Station Type Date Time Source
KVJI Decoded METAR 2021/05/12 04:55 UTC NOAA

Abingdon, VA, United States (KVJI) 36-41N 082-02W
May 12, 2021 - 12:55 AM EDT / 2021.05.12 0455 UTC
Wind: from the NE (050 degrees) at 6 MPH (5 KT):0
Visibility: 10 mile(s):0
Sky conditions: overcast
Temperature: 52.9 F (11.6 C)
Dew Point: 37.0 F (2.8 C)
Relative Humidity: 54%
Pressure (altimeter): 30.21 in. Hg (1023 hPa)
ob: KVJI 120455Z AUTO 05005KT 10SM OVC075 12/03 A3021 RMK AO2 T01160028
cycle: 5

Station Type Date Time Source
KVJI TAF UTC NOAA

Error!

Example: see airport list